Early, Iowa
Current Conditions -  °F | °C
As of 6:35 AM on Sunday 23 Nov 2014 (Local Time) from KSLB Reporting Station
Haze Haze  
Wind Chill: 50°   Ceiling: 500
Heat Index: 50°   Visibility: 4mi
Dew Point: 50°   Wind: 17mph
Humidity: 100%   Direction: 210°SSW
Pressure: 29.46"   Gusts: 23mph
Location:  42.46°N, 95.15°W
Report Text: KSLB 231235Z AUTO 21015G20KT 4SM BR OVC005 10/10 A2946 RMK AO2
Loading
Personal Weather Stations






























Interactive Weather Map New forecast layout! Learn more

10-Day Weather Forecast

Advertisements
Track Severe Weather on mobile